createdAt,value
2023-05-04T00:00:37.830Z,97404.28
2023-05-04T00:03:05.598Z,97422.88
2023-05-04T00:05:33.472Z,97427.88
2023-05-04T00:08:09.686Z,97421.09
2023-05-04T00:10:41.521Z,97434.13
2023-05-04T00:13:09.481Z,97418.16
2023-05-04T00:15:36.785Z,97413.75
2023-05-04T00:18:05.752Z,97426.38
2023-05-04T00:20:34.428Z,97427.03
2023-05-04T00:23:15.016Z,97429.09
2023-05-04T00:25:43.903Z,97424.53
2023-05-04T00:28:17.554Z,97411.38
2023-05-04T00:30:46.820Z,97409.16
2023-05-04T00:33:15.238Z,97407.91
2023-05-04T00:35:43.756Z,97404.16
2023-05-04T00:38:12.840Z,97410.41
2023-05-04T00:40:45.251Z,97406.78
2023-05-04T00:43:14.649Z,97408.16
2023-05-04T00:45:52.920Z,97389.19
2023-05-04T00:48:22.307Z,97395.31
2023-05-04T00:50:51.372Z,97399.59
2023-05-04T00:53:19.698Z,97392.09
2023-05-04T00:57:28.079Z,97388.50
2023-05-04T00:59:18.422Z,97390.16
2023-05-04T01:02:05.307Z,97384.63
2023-05-04T01:04:45.203Z,97382.81
2023-05-04T01:08:15.995Z,97384.34
2023-05-04T01:11:21.562Z,97376.88
2023-05-04T01:13:56.317Z,97384.31
2023-05-04T01:16:31.845Z,97369.50
2023-05-04T01:19:20.724Z,97367.97
2023-05-04T01:21:58.501Z,97363.97
2023-05-04T01:24:53.847Z,97364.34
2023-05-04T01:27:45.452Z,97358.84
2023-05-04T01:30:29.428Z,97353.69
2023-05-04T01:33:04.756Z,97353.00
2023-05-04T01:35:36.989Z,97345.66
2023-05-04T01:38:09.134Z,97343.59
2023-05-04T01:43:54.154Z,97339.69
2023-05-04T01:46:25.045Z,97328.88
2023-05-04T01:51:59.160Z,97333.59
2023-05-04T01:54:50.360Z,97322.91
2023-05-04T01:57:35.533Z,97308.91
2023-05-04T02:00:21.235Z,97298.94
2023-05-04T02:02:48.089Z,97296.31
2023-05-04T02:05:38.014Z,97287.56
2023-05-04T02:11:10.289Z,97295.19
2023-05-04T02:11:53.019Z,97283.69
2023-05-04T02:14:29.059Z,97280.63
2023-05-04T02:17:06.788Z,97283.16
2023-05-04T02:19:34.723Z,97286.47
2023-05-04T02:22:02.262Z,97294.50
2023-05-04T02:24:30.772Z,97302.84
2023-05-04T02:27:01.048Z,97302.56
2023-05-04T02:29:30.103Z,97306.44
2023-05-04T02:31:59.031Z,97298.25
2023-05-04T02:34:32.753Z,97299.78
2023-05-04T02:37:05.848Z,97308.66
2023-05-04T02:39:40.800Z,97305.06
2023-05-04T02:42:34.008Z,97307.53
2023-05-04T02:45:01.862Z,97307.97
2023-05-04T02:47:46.431Z,97303.53
2023-05-04T02:50:15.633Z,97311.16
2023-05-04T02:52:42.929Z,97294.50
2023-05-04T02:55:10.317Z,97303.25
2023-05-04T02:57:36.973Z,97302.69
2023-05-04T03:00:05.818Z,97300.72
2023-05-04T03:02:33.172Z,97308.63
2023-05-04T03:05:00.058Z,97313.88
2023-05-04T03:07:32.381Z,97321.53
2023-05-04T03:10:00.453Z,97313.63
2023-05-04T03:12:28.421Z,97323.59
2023-05-04T03:14:55.526Z,97316.06
2023-05-04T03:17:22.996Z,97321.06
2023-05-04T03:19:49.798Z,97314.94
2023-05-04T03:22:16.811Z,97317.19
2023-05-04T03:24:46.738Z,97320.22
2023-05-04T03:27:13.568Z,97321.56
2023-05-04T03:29:40.586Z,97329.47
2023-05-04T03:32:07.801Z,97332.69
2023-05-04T03:34:35.163Z,97338.50
2023-05-04T03:37:02.031Z,97347.09
2023-05-04T03:39:29.167Z,97352.50
2023-05-04T03:41:56.346Z,97359.03
2023-05-04T03:44:23.847Z,97359.16
2023-05-04T03:46:51.081Z,97364.00
2023-05-04T03:49:18.438Z,97364.00
2023-05-04T03:51:45.881Z,97376.97
2023-05-04T03:54:12.808Z,97370.34
2023-05-04T03:56:40.680Z,97385.31
2023-05-04T03:59:07.358Z,97382.41
2023-05-04T04:01:34.241Z,97395.22
2023-05-04T04:04:01.761Z,97406.34
2023-05-04T04:06:29.283Z,97407.22
2023-05-04T04:08:56.258Z,97405.81
2023-05-04T04:11:23.328Z,97405.53
2023-05-04T04:13:51.048Z,97404.44
2023-05-04T04:16:22.314Z,97397.81
2023-05-04T04:18:49.570Z,97399.53
2023-05-04T04:21:17.854Z,97412.00
2023-05-04T04:23:44.824Z,97408.97
2023-05-04T04:26:12.447Z,97414.09
2023-05-04T04:28:39.404Z,97421.31
2023-05-04T04:31:06.524Z,97433.94
2023-05-04T04:33:34.840Z,97440.34
2023-05-04T04:36:01.992Z,97421.78
2023-05-04T04:38:35.324Z,97431.19
2023-05-04T04:41:02.339Z,97428.69
2023-05-04T04:43:29.248Z,97428.44
2023-05-04T04:45:56.109Z,97429.25
2023-05-04T04:48:27.031Z,97424.78
2023-05-04T04:50:54.391Z,97424.38
2023-05-04T04:53:22.076Z,97416.94
2023-05-04T04:55:49.526Z,97411.34
2023-05-04T04:58:18.888Z,97408.06
2023-05-04T05:00:52.495Z,97425.88
2023-05-04T05:03:24.596Z,97422.59
2023-05-04T05:06:06.456Z,97425.25
2023-05-04T05:08:34.832Z,97422.13
2023-05-04T05:11:05.362Z,97421.13
2023-05-04T05:13:32.860Z,97431.38
2023-05-04T05:16:00.296Z,97426.84
2023-05-04T05:18:30.250Z,97431.47
2023-05-04T05:20:57.050Z,97422.50
2023-05-04T05:23:25.960Z,97429.66
2023-05-04T05:25:53.546Z,97431.63
2023-05-04T05:28:22.195Z,97435.06
2023-05-04T05:30:52.359Z,97438.28
2023-05-04T05:33:29.686Z,97425.06
2023-05-04T05:35:56.940Z,97432.50
2023-05-04T05:38:24.292Z,97431.22
2023-05-04T05:40:54.393Z,97432.47
2023-05-04T05:43:21.905Z,97427.38
2023-05-04T05:45:49.400Z,97429.56
2023-05-04T05:48:36.559Z,97433.63
2023-05-04T05:51:04.181Z,97437.38
2023-05-04T05:53:31.941Z,97434.44
2023-05-04T05:55:58.667Z,97436.63
2023-05-04T05:58:25.562Z,97449.06
2023-05-04T06:00:52.735Z,97445.75
2023-05-04T06:03:19.907Z,97453.06
2023-05-04T06:05:46.931Z,97449.75
2023-05-04T06:08:14.421Z,97449.44
2023-05-04T06:10:46.582Z,97451.78
2023-05-04T06:13:24.947Z,97451.59
2023-05-04T06:15:53.212Z,97454.09
2023-05-04T06:18:20.544Z,97449.63
2023-05-04T06:20:47.789Z,97442.16
2023-05-04T06:23:15.464Z,97446.13
2023-05-04T06:25:42.920Z,97444.13
2023-05-04T06:28:09.862Z,97450.94
2023-05-04T06:30:36.969Z,97455.72
2023-05-04T06:33:07.771Z,97457.06
2023-05-04T06:35:34.751Z,97439.81
2023-05-04T06:38:01.753Z,97442.31
2023-05-04T06:40:28.678Z,97442.28
2023-05-04T06:42:55.449Z,97447.44
2023-05-04T06:45:22.454Z,97440.75
2023-05-04T06:47:50.359Z,97450.72
2023-05-04T06:50:17.301Z,97448.38
2023-05-04T06:52:49.332Z,97453.72
2023-05-04T06:55:16.249Z,97456.03
2023-05-04T06:57:43.993Z,97456.97
2023-05-04T07:00:13.184Z,97463.47
2023-05-04T07:02:40.185Z,97459.31
2023-05-04T07:05:07.364Z,97463.19
2023-05-04T07:07:34.178Z,97458.63
2023-05-04T07:10:00.944Z,97455.09
2023-05-04T07:12:28.543Z,97454.22
2023-05-04T07:14:55.381Z,97455.72
2023-05-04T07:17:22.727Z,97454.66
2023-05-04T07:19:52.509Z,97450.66
2023-05-04T07:22:20.930Z,97454.66
2023-05-04T07:24:47.874Z,97455.63
2023-05-04T07:27:14.643Z,97465.63
2023-05-04T07:29:41.788Z,97455.88
2023-05-04T07:32:08.654Z,97461.47
2023-05-04T07:34:45.142Z,97461.91
2023-05-04T07:37:13.862Z,97460.19
2023-05-04T07:39:41.208Z,97461.09
2023-05-04T07:42:08.700Z,97459.19
2023-05-04T07:44:35.578Z,97451.63
2023-05-04T07:47:02.946Z,97462.28
2023-05-04T07:49:29.878Z,97463.88
2023-05-04T07:51:56.692Z,97464.16
2023-05-04T07:54:23.451Z,97461.41
2023-05-04T07:56:50.192Z,97469.72
2023-05-04T07:59:20.636Z,97466.03
2023-05-04T08:01:47.629Z,97466.31
2023-05-04T08:04:14.388Z,97467.31
2023-05-04T08:06:42.256Z,97457.22
2023-05-04T08:09:12.595Z,97466.63
2023-05-04T08:11:42.800Z,97480.38
2023-05-04T08:14:09.625Z,97475.94
2023-05-04T08:16:36.960Z,97483.06
2023-05-04T08:19:04.166Z,97496.84
2023-05-04T08:21:31.651Z,97491.91
2023-05-04T08:23:58.487Z,97490.59
2023-05-04T08:26:25.745Z,97491.53
2023-05-04T08:28:53.176Z,97488.22
2023-05-04T08:31:20.091Z,97491.53
2023-05-04T08:33:47.110Z,97483.28
2023-05-04T08:36:14.328Z,97498.47
2023-05-04T08:38:41.321Z,97488.19
2023-05-04T08:41:09.147Z,97490.50
2023-05-04T08:43:36.552Z,97489.00
2023-05-04T08:46:05.063Z,97486.34
2023-05-04T08:48:34.342Z,97486.47
2023-05-04T08:51:02.778Z,97484.81
2023-05-04T08:53:31.874Z,97484.69
2023-05-04T08:56:04.286Z,97491.44
2023-05-04T08:58:38.154Z,97483.31
2023-05-04T09:01:07.258Z,97479.84
2023-05-04T09:03:36.677Z,97484.00
2023-05-04T09:06:04.301Z,97481.53
2023-05-04T09:08:31.556Z,97471.31
2023-05-04T09:10:58.778Z,97470.31
2023-05-04T09:13:26.926Z,97472.00
2023-05-04T09:15:56.550Z,97472.34
2023-05-04T09:18:26.579Z,97473.34
2023-05-04T09:20:53.940Z,97467.31
2023-05-04T09:23:22.730Z,97462.00
2023-05-04T09:25:52.557Z,97457.47
2023-05-04T09:28:22.062Z,97468.22
2023-05-04T09:30:51.961Z,97455.88
2023-05-04T09:33:27.541Z,97444.59
2023-05-04T09:35:54.374Z,97447.13
2023-05-04T09:38:26.862Z,97438.09
2023-05-04T09:40:54.292Z,97435.19
2023-05-04T09:43:21.374Z,97430.59
2023-05-04T09:45:49.435Z,97427.16
2023-05-04T09:48:29.567Z,97426.75
2023-05-04T09:50:59.039Z,97421.97
2023-05-04T09:53:31.080Z,97408.53
2023-05-04T09:56:18.404Z,97413.88
2023-05-04T09:58:46.950Z,97405.00
2023-05-04T10:01:14.331Z,97397.78
2023-05-04T10:03:43.348Z,97390.34
2023-05-04T10:06:12.021Z,97397.16
2023-05-04T10:08:42.148Z,97396.13
2023-05-04T10:11:09.270Z,97383.56
2023-05-04T10:13:36.576Z,97398.38
2023-05-04T10:16:13.042Z,97395.84
2023-05-04T10:19:08.259Z,97387.38
2023-05-04T10:21:35.558Z,97381.81
2023-05-04T10:24:22.609Z,97387.06
2023-05-04T10:26:53.779Z,97391.28
2023-05-04T10:29:23.837Z,97387.75
2023-05-04T10:31:52.194Z,97393.25
2023-05-04T10:34:49.216Z,97391.72
2023-05-04T10:37:18.874Z,97402.94
2023-05-04T10:39:56.259Z,97395.88
2023-05-04T10:42:23.384Z,97402.38
2023-05-04T10:44:58.549Z,97408.72
2023-05-04T10:47:34.283Z,97418.03
2023-05-04T10:50:09.502Z,97413.69
2023-05-04T10:53:06.989Z,97425.81
2023-05-04T10:55:49.640Z,97426.75
2023-05-04T10:58:28.973Z,97421.94
2023-05-04T11:00:55.998Z,97424.13
2023-05-04T11:03:43.972Z,97422.84
2023-05-04T11:06:23.445Z,97422.97
2023-05-04T11:09:02.547Z,97427.81
2023-05-04T11:11:29.421Z,97422.63
2023-05-04T11:14:21.623Z,97427.41
2023-05-04T11:16:52.244Z,97419.41
2023-05-04T11:19:19.375Z,97421.44
2023-05-04T11:21:47.425Z,97428.13
2023-05-04T11:24:30.308Z,97428.19
2023-05-04T11:26:57.018Z,97434.22
2023-05-04T11:29:24.056Z,97437.75
2023-05-04T11:31:55.514Z,97447.81
2023-05-04T11:34:30.327Z,97440.50
2023-05-04T11:37:00.824Z,97446.50
2023-05-04T11:39:32.579Z,97444.06
2023-05-04T11:42:01.148Z,97446.34
2023-05-04T11:44:30.202Z,97445.22
2023-05-04T11:46:57.096Z,97446.88
2023-05-04T11:49:26.432Z,97447.72
2023-05-04T11:51:53.260Z,97445.22
2023-05-04T11:54:23.989Z,97440.34
2023-05-04T11:56:50.924Z,97434.06
2023-05-04T11:59:18.000Z,97435.78
2023-05-04T12:01:44.913Z,97441.66
2023-05-04T12:04:11.910Z,97444.03
2023-05-04T12:06:38.847Z,97447.81
2023-05-04T12:09:06.679Z,97449.59
2023-05-04T12:11:38.596Z,97445.69
2023-05-04T12:14:15.571Z,97456.94
2023-05-04T12:16:53.740Z,97453.91
2023-05-04T12:19:20.878Z,97455.22
2023-05-04T12:21:53.257Z,97456.22
2023-05-04T12:24:22.727Z,97457.63
2023-05-04T12:26:50.068Z,97451.97
2023-05-04T12:29:17.153Z,97456.47
2023-05-04T12:31:44.255Z,97454.31
2023-05-04T12:34:11.789Z,97458.63
2023-05-04T12:36:38.471Z,97466.78
2023-05-04T12:39:05.326Z,97474.81
2023-05-04T12:41:32.809Z,97465.84
2023-05-04T12:44:17.167Z,97471.03
2023-05-04T12:46:44.943Z,97471.00
2023-05-04T12:49:14.624Z,97479.91
2023-05-04T12:51:42.753Z,97485.56
2023-05-04T12:54:11.216Z,97480.91
2023-05-04T12:56:39.846Z,97490.34
2023-05-04T12:59:07.348Z,97494.59
2023-05-04T13:01:34.439Z,97494.59
2023-05-04T13:04:01.435Z,97487.97
2023-05-04T13:06:28.936Z,97496.41
2023-05-04T13:08:56.632Z,97493.94
2023-05-04T13:11:25.172Z,97503.00
2023-05-04T13:13:55.634Z,97504.25
2023-05-04T13:16:22.781Z,97507.50
2023-05-04T13:18:49.878Z,97506.66
2023-05-04T13:21:16.849Z,97507.41
2023-05-04T13:23:43.730Z,97509.03
2023-05-04T13:26:10.924Z,97504.03
2023-05-04T13:28:39.395Z,97507.34
2023-05-04T13:31:06.480Z,97507.34
2023-05-04T13:33:34.249Z,97501.00
2023-05-04T13:36:03.598Z,97504.97
2023-05-04T13:38:30.435Z,97502.00
2023-05-04T13:40:57.450Z,97510.47
2023-05-04T13:43:25.087Z,97508.81
2023-05-04T13:45:52.816Z,97509.66
2023-05-04T13:48:21.297Z,97513.28
2023-05-04T13:50:48.591Z,97510.25
2023-05-04T13:53:16.386Z,97507.34
2023-05-04T13:55:43.552Z,97502.66
2023-05-04T13:58:11.112Z,97512.44
2023-05-04T14:00:38.315Z,97509.78
2023-05-04T14:03:05.285Z,97509.69
2023-05-04T14:05:32.594Z,97508.69
2023-05-04T14:07:59.718Z,97508.03
2023-05-04T14:10:29.372Z,97508.47
2023-05-04T14:12:56.552Z,97509.97
2023-05-04T14:15:24.891Z,97514.22
2023-05-04T14:17:51.596Z,97523.63
2023-05-04T14:20:18.429Z,97519.06
2023-05-04T14:22:45.565Z,97519.53
2023-05-04T14:25:13.299Z,97528.97
2023-05-04T14:27:44.088Z,97528.44
2023-05-04T14:30:14.818Z,97524.28
2023-05-04T14:32:41.928Z,97521.03
2023-05-04T14:35:12.691Z,97519.22
2023-05-04T14:37:40.852Z,97525.78
2023-05-04T14:40:09.826Z,97539.53
2023-05-04T14:42:37.369Z,97533.34
2023-05-04T14:45:05.858Z,97535.44
2023-05-04T14:47:33.822Z,97549.91
2023-05-04T14:50:04.556Z,97541.28
2023-05-04T14:52:33.529Z,97545.19
2023-05-04T14:55:07.484Z,97546.31
2023-05-04T14:57:35.486Z,97554.97
2023-05-04T15:00:09.738Z,97552.06
2023-05-04T15:02:42.123Z,97553.31
2023-05-04T15:05:13.301Z,97559.28
2023-05-04T15:07:48.847Z,97558.31
2023-05-04T15:15:50.540Z,97566.44
2023-05-04T15:18:18.601Z,97563.38
2023-05-04T15:20:45.686Z,97565.94
2023-05-04T15:23:12.741Z,97558.44
2023-05-04T15:25:43.515Z,97563.84
2023-05-04T15:28:13.495Z,97561.38
2023-05-04T15:30:42.358Z,97553.84
2023-05-04T15:33:09.514Z,97553.44
2023-05-04T15:35:37.072Z,97553.16
2023-05-04T15:38:04.591Z,97551.25
2023-05-04T15:40:31.824Z,97547.63
2023-05-04T15:42:58.585Z,97552.63
2023-05-04T15:45:26.111Z,97559.34
2023-05-04T15:47:54.399Z,97555.03
2023-05-04T15:50:21.600Z,97560.47
2023-05-04T15:52:48.638Z,97554.06
2023-05-04T15:55:25.543Z,97556.00
2023-05-04T15:57:54.483Z,97552.38
2023-05-04T16:00:21.803Z,97561.00
2023-05-04T16:02:48.633Z,97561.28
2023-05-04T16:05:15.739Z,97564.91
2023-05-04T16:07:42.754Z,97557.56
2023-05-04T16:10:10.321Z,97565.75
2023-05-04T16:12:41.353Z,97566.03
2023-05-04T16:15:08.699Z,97570.34
2023-05-04T16:17:36.766Z,97573.13
2023-05-04T16:20:09.906Z,97571.63
2023-05-04T16:22:38.873Z,97568.28
2023-05-04T16:25:06.791Z,97568.84
2023-05-04T16:27:34.866Z,97563.84
2023-05-04T16:30:01.784Z,97562.88
2023-05-04T16:32:28.670Z,97564.53
2023-05-04T16:34:55.554Z,97570.22
2023-05-04T16:37:23.121Z,97576.09
2023-05-04T16:39:50.552Z,97574.69
2023-05-04T16:42:19.035Z,97572.63
2023-05-04T16:44:47.568Z,97586.09
2023-05-04T16:47:14.865Z,97578.44
2023-05-04T16:49:42.202Z,97581.50
2023-05-04T16:52:12.360Z,97573.75
2023-05-04T16:54:39.391Z,97587.34
2023-05-04T16:57:09.503Z,97589.59
2023-05-04T16:59:36.534Z,97588.88
2023-05-04T17:02:03.328Z,97595.97
2023-05-04T17:04:31.584Z,97600.41
2023-05-04T17:06:58.714Z,97596.94
2023-05-04T17:09:25.556Z,97591.66
2023-05-04T17:11:52.391Z,97595.13
2023-05-04T17:14:19.214Z,97603.31
2023-05-04T17:16:47.990Z,97595.13
2023-05-04T17:19:15.087Z,97590.13
2023-05-04T17:21:52.299Z,97591.91
2023-05-04T17:24:19.532Z,97591.78
2023-05-04T17:26:47.109Z,97590.56
2023-05-04T17:29:14.637Z,97593.03
2023-05-04T17:31:42.048Z,97588.47
2023-05-04T17:34:12.419Z,97580.84
2023-05-04T17:36:40.577Z,97593.03
2023-05-04T17:39:07.833Z,97596.38
2023-05-04T17:41:34.740Z,97594.69
2023-05-04T17:44:01.686Z,97599.16
2023-05-04T17:46:29.437Z,97607.22
2023-05-04T17:48:59.252Z,97603.31
2023-05-04T17:51:26.370Z,97612.75
2023-05-04T17:53:53.824Z,97621.66
2023-05-04T17:56:21.624Z,97617.75
2023-05-04T17:58:48.577Z,97624.56
2023-05-04T18:01:19.769Z,97626.34
2023-05-04T18:03:48.202Z,97631.94
2023-05-04T18:06:15.214Z,97633.59
2023-05-04T18:08:42.739Z,97643.44
2023-05-04T18:11:09.794Z,97644.25
2023-05-04T18:13:37.260Z,97640.25
2023-05-04T18:16:04.810Z,97649.41
2023-05-04T18:18:32.321Z,97657.34
2023-05-04T18:21:02.100Z,97653.31
2023-05-04T18:23:54.046Z,97657.75
2023-05-04T18:26:23.012Z,97660.09
2023-05-04T18:28:59.229Z,97661.91
2023-05-04T18:32:00.470Z,97666.63
2023-05-04T18:34:28.577Z,97673.84
2023-05-04T18:36:58.852Z,97667.19
2023-05-04T18:39:25.915Z,97673.59
2023-05-04T18:41:52.978Z,97673.28
2023-05-04T18:44:20.177Z,97680.38
2023-05-04T18:46:47.331Z,97676.78
2023-05-04T18:49:14.812Z,97670.78
2023-05-04T18:51:42.154Z,97666.50
2023-05-04T18:54:09.466Z,97671.91
2023-05-04T18:56:41.588Z,97678.03
2023-05-04T18:59:31.116Z,97677.19
2023-05-04T19:02:10.062Z,97680.81
2023-05-04T19:04:37.123Z,97676.47
2023-05-04T19:07:14.420Z,97684.41
2023-05-04T19:09:43.672Z,97686.91
2023-05-04T19:12:22.622Z,97690.53
2023-05-04T19:14:56.043Z,97686.91
2023-05-04T19:17:26.087Z,97694.94
2023-05-04T19:19:53.240Z,97687.44
2023-05-04T19:22:25.239Z,97688.28
2023-05-04T19:24:53.416Z,97695.94
2023-05-04T19:27:20.679Z,97687.91
2023-05-04T19:29:48.641Z,97689.00
2023-05-04T19:32:25.452Z,97699.41
2023-05-04T19:38:02.855Z,97684.97
2023-05-04T19:40:30.043Z,97691.91
2023-05-04T19:42:57.098Z,97687.59
2023-05-04T19:45:24.079Z,97684.97
2023-05-04T19:47:52.789Z,97677.16
2023-05-04T19:50:20.125Z,97680.78
2023-05-04T19:52:47.776Z,97692.16
2023-05-04T19:55:16.806Z,97688.84
2023-05-04T19:57:47.653Z,97687.03
2023-05-04T20:00:21.328Z,97699.41
2023-05-04T20:02:52.217Z,97697.72
2023-05-04T20:05:23.334Z,97703.97
2023-05-04T20:07:50.496Z,97705.63
2023-05-04T20:10:21.156Z,97705.88
2023-05-04T20:12:48.537Z,97710.06
2023-05-04T20:15:16.408Z,97701.88
2023-05-04T20:17:45.394Z,97714.50
2023-05-04T20:20:20.129Z,97707.09
2023-05-04T20:22:52.956Z,97707.09
2023-05-04T20:28:23.868Z,97723.78
2023-05-04T20:30:57.905Z,97711.25
2023-05-04T20:33:25.393Z,97713.50
2023-05-04T20:35:54.833Z,97716.00
2023-05-04T20:38:22.054Z,97721.00
2023-05-04T20:40:50.941Z,97726.41
2023-05-04T20:43:19.650Z,97721.53
2023-05-04T20:45:47.614Z,97720.75
2023-05-04T20:48:14.953Z,97720.75
2023-05-04T20:50:53.189Z,97721.00
2023-05-04T20:53:23.965Z,97715.16
2023-05-04T20:55:50.662Z,97710.56
2023-05-04T20:58:20.683Z,97704.84
2023-05-04T21:00:55.830Z,97715.38
2023-05-04T21:03:23.651Z,97720.66
2023-05-04T21:05:51.056Z,97721.22
2023-05-04T21:08:28.341Z,97714.28
2023-05-04T21:10:56.680Z,97727.16
2023-05-04T21:13:24.227Z,97705.38
2023-05-04T21:15:54.584Z,97707.06
2023-05-04T21:18:24.677Z,97711.22
2023-05-04T21:20:51.998Z,97703.00
2023-05-04T21:23:19.229Z,97698.72
2023-05-04T21:25:46.680Z,97700.94
2023-05-04T21:28:15.716Z,97697.06
2023-05-04T21:30:43.145Z,97702.59
2023-05-04T21:33:10.390Z,97711.09
2023-05-04T21:35:37.762Z,97707.06
2023-05-04T21:38:05.252Z,97710.66
2023-05-04T21:40:35.368Z,97710.66
2023-05-04T21:43:02.980Z,97702.03
2023-05-04T21:45:33.808Z,97708.72
2023-05-04T21:48:02.760Z,97699.84
2023-05-04T21:50:30.376Z,97710.41
2023-05-04T21:53:00.884Z,97711.22
2023-05-04T21:55:30.653Z,97703.19
2023-05-04T21:57:58.185Z,97705.97
2023-05-04T22:00:25.825Z,97704.97
2023-05-04T22:02:59.206Z,97702.34
2023-05-04T22:05:26.732Z,97698.47
2023-05-04T22:07:54.006Z,97695.38
2023-05-04T22:10:21.383Z,97702.75
2023-05-04T22:12:49.186Z,97687.91
2023-05-04T22:15:18.739Z,97698.47
2023-05-04T22:17:49.240Z,97697.75
2023-05-04T22:20:16.619Z,97693.19
2023-05-04T22:22:44.382Z,97692.88
2023-05-04T22:25:14.806Z,97689.56
2023-05-04T22:27:42.465Z,97692.63
2023-05-04T22:30:10.695Z,97689.00
2023-05-04T22:32:37.954Z,97684.56
2023-05-04T22:35:05.696Z,97683.16
2023-05-04T22:37:36.311Z,97687.47
2023-05-04T22:40:15.630Z,97682.34
2023-05-04T22:42:46.550Z,97676.91
2023-05-04T22:45:15.230Z,97677.88
2023-05-04T22:47:43.357Z,97676.22
2023-05-04T22:50:14.213Z,97671.78
2023-05-04T22:52:42.250Z,97671.91
2023-05-04T22:55:12.747Z,97667.63
2023-05-04T22:57:40.162Z,97661.25
2023-05-04T23:00:08.624Z,97658.91
2023-05-04T23:05:28.632Z,97659.03
2023-05-04T23:07:56.294Z,97649.47
2023-05-04T23:10:23.859Z,97646.69
2023-05-04T23:12:53.831Z,97649.56
2023-05-04T23:15:23.476Z,97639.31
2023-05-04T23:17:53.991Z,97645.44
2023-05-04T23:20:21.516Z,97639.75
2023-05-04T23:22:48.629Z,97633.75
2023-05-04T23:25:15.748Z,97639.31
2023-05-04T23:27:46.212Z,97634.63
2023-05-04T23:30:14.514Z,97635.44
2023-05-04T23:32:41.779Z,97635.03
2023-05-04T23:35:09.513Z,97632.53
2023-05-04T23:37:37.115Z,97631.56
2023-05-04T23:40:05.895Z,97633.22
2023-05-04T23:42:33.862Z,97631.00
2023-05-04T23:45:01.146Z,97624.91
2023-05-04T23:47:31.566Z,97629.34
2023-05-04T23:50:03.321Z,97635.72
2023-05-04T23:52:31.119Z,97626.81
2023-05-04T23:54:58.281Z,97626.56
2023-05-04T23:57:25.345Z,97631.56
2023-05-04T23:59:53.933Z,97633.50
